Tuesday, June 19, 2018, 12:36 AM GMT
Back to Local

CYWA, Petawawa, Ont.

Location: , , Canada Lat: 45.95
Local Time: 12:36 AM GMT ( 0:36 GMT) Lon: -77.317
Time Zone: GMT Elev: 426 ft

Show me the last for .
Show Decoded

2018-06-19 00:00 METAR CYWA 190000Z AUTO 32008KT 280V340 9SM FEW016 BKN056 BKN073 BKN083 20/17
                 A2978 RMK SLP085 =
2018-06-18 23:00 METAR CYWA 182300Z AUTO 30004KT 270V340 9SM BKN038 OVC058 OVC077 20/17 A2974 RMK
                 SLP072 =
2018-06-18 22:44 METAR CYWA 182244Z AUTO 35008KT 9SM SCT016 OVC038 OVC058 20/17 A2974 =
2018-06-18 22:12 METAR CYWA 182212Z AUTO 34013KT 9SM OVC014 OVC036 OVC047 20/18 A2974 =
2018-06-18 22:00 METAR CYWA 182200Z AUTO 36016KT 9SM -RA OVC014 OVC049 OVC054 OVC063 20/18 A2973
                 RMK SLP069 =
2018-06-18 21:28 METAR CYWA 182128Z AUTO 36014KT 270V020 8SM -RA OVC014 OVC037 OVC045 OVC057
                 22/20 A2971 =
2018-06-18 21:22 METAR CYWA 182122Z AUTO 30011KT 9SM -RA BKN014 OVC037 23/21 A2970 =
2018-06-18 21:20 METAR CYWA 182120Z AUTO 29009G15KT 9SM -RA BKN017 OVC037 23/21 A2970 =
2018-06-18 21:13 METAR CYWA 182113Z AUTO 30010KT 9SM BKN017 OVC035 24/21 A2969 =
2018-06-18 21:00 METAR CYWA 182100Z AUTO 30010KT 9SM OVC028 25/21 A2969 RMK SLP054 =
2018-06-18 20:59 METAR CYWA 182059Z AUTO 30008KT 9SM OVC028 25/21 A2969 =
2018-06-18 20:56 METAR CYWA 182056Z AUTO 29008KT 9SM -RA OVC028 OVC065 25/21 A2969 =
2018-06-18 20:49 METAR CYWA 182049Z AUTO 30009KT 260V320 9SM -RA OVC021 24/21 A2969 =
2018-06-18 20:21 METAR CYWA 182021Z AUTO 30006KT 9SM OVC023 24/22 A2969 =
2018-06-18 20:12 METAR CYWA 182012Z AUTO 30007KT 9SM OVC026 25/22 A2969 =
2018-06-18 20:01 METAR CYWA 182001Z AUTO 29007KT 9SM -RA FEW024 FEW031 BKN042 25/22 A2968 =
2018-06-18 20:00 METAR CYWA 182000Z AUTO 30007KT 9SM -RA BKN021 BKN031 OVC049 25/22 A2968 RMK
                 SLP052 =
2018-06-18 19:39 METAR CYWA 181939Z AUTO 29008KT 250V320 9SM -RA OVC021 OVC031 OVC056 26/22 A2969
                 =
2018-06-18 19:25 METAR CYWA 181925Z AUTO 27007KT 230V310 9SM BKN021 BKN031 BKN060 BKN076 26/22
                 A2968 =
2018-06-18 19:09 METAR CYWA 181909Z AUTO 29005KT 250V310 9SM FEW039 FEW041 FEW060 FEW071 25/23
                 A2968 =
2018-06-18 19:07 METAR CYWA 181907Z AUTO 28005KT 250V310 9SM -RA FEW023 FEW039 FEW041 FEW060
                 25/23 A2968 =
2018-06-18 19:05 METAR CYWA 181905Z AUTO 28005KT 250V310 9SM FEW021 FEW039 FEW041 SCT060 25/23
                 A2968 =
2018-06-18 19:00 METAR CYWA 181900Z AUTO 28005KT 250V310 9SM -RA FEW013 FEW039 SCT041 SCT060
                 25/22 A2969 RMK SLP054 =
2018-06-18 18:49 METAR CYWA 181849Z AUTO 27010G15KT 9SM -RA FEW013 SCT041 BKN060 BKN069 25/22
                 A2969 =
2018-06-18 18:39 METAR CYWA 181839Z AUTO 29008KT 4SM -RA BKN013 BKN041 OVC069 25/23 A2969 =
2018-06-18 18:00 METAR CYWA 181800Z AUTO 27009KT 9SM -RA FEW016 FEW054 FEW060 BKN072 26/22 A2970
                 RMK SLP058 =
2018-06-18 17:56 METAR CYWA 181756Z AUTO 28009KT 9SM -RA FEW060 BKN072 26/21 A2971 =
2018-06-18 17:48 METAR CYWA 181748Z AUTO 28009G16KT 9SM SCT077 27/21 A2971 =
2018-06-18 17:12 METAR CYWA 181712Z AUTO 26008KT 220V280 9SM -RA FEW027 FEW032 SCT036 BKN040
                 27/21 A2971 =
2018-06-18 17:00 METAR CYWA 181700Z AUTO 28012G17KT 9SM FEW029 SCT044 27/21 A2971 RMK SLP062 =
2018-06-18 16:00 METAR CYWA 181600Z AUTO 28009KT 9SM BKN025 BKN098 27/21 A2971 RMK SLP062 =
2018-06-18 15:41 METAR CYWA 181541Z AUTO 27005KT 230V300 9SM BKN025 OVC038 27/22 A2971 =
2018-06-18 15:00 METAR CYWA 181500Z AUTO 25007KT 230V300 9SM BKN022 BKN036 27/23 A2972 RMK SLP062
                 =
2018-06-18 14:17 METAR CYWA 181417Z AUTO 25008KT 200V270 9SM BKN016 BKN027 27/24 A2972 =
2018-06-18 14:00 METAR CYWA 181400Z AUTO 23007KT 180V260 9SM FEW036 FEW045 FEW093 26/24 A2972 RMK
                 PCPN 0.5MM PAST HR SLP064 =
2018-06-18 13:22 METAR CYWA 181322Z AUTO 17002KT 5SM FEW045 FEW083 FEW093 23/22 A2974 =
2018-06-18 13:02 METAR CYWA 181302Z AUTO 00000KT 2 1/4SM FEW039 FEW083 FEW098 22/21 A2974 =
2018-06-18 13:00 METAR CYWA 181300Z AUTO 00000KT 3SM FEW039 FEW045 FEW083 FEW098 22/21 A2974 RMK
                 PCPN 4.5MM PAST HR SLP072 =
2018-06-18 12:31 METAR CYWA 181231Z AUTO 20003KT 6SM BKN048 BKN066 BKN077 23/22 A2975 =
2018-06-18 12:30 METAR CYWA 181230Z AUTO 21003KT 6SM -RA BKN048 BKN066 BKN077 22/22 A2974 =
2018-06-18 12:29 METAR CYWA 181229Z AUTO 23002KT 2 1/2SM -RA BKN048 BKN066 BKN077 22/22 A2975 =
2018-06-18 12:19 METAR CYWA 181219Z AUTO 00000KT 1 3/4SM +RA BKN002 BKN048 BKN066 22/22 A2975 RMK
                 VSBY VRBL 0.7V5.0 =
2018-06-18 12:17 METAR CYWA 181217Z AUTO 00000KT 3/4SM +RA BKN002 BKN048 BKN066 22/21 A2975 RMK
                 VSBY VRBL 0.2V4.0 =
2018-06-18 12:09 METAR CYWA 181209Z AUTO 00000KT 3/8SM +RA VV002 21/21 A2974 =
2018-06-18 12:07 METAR CYWA 181207Z AUTO 32003KT 290V360 5/8SM +RA VV002 21/21 A2975 =
2018-06-18 12:06 METAR CYWA 181206Z AUTO 31005KT 3/4SM RA BKN025 BKN041 OVC066 21/21 A2976 =
2018-06-18 12:05 METAR CYWA 181205Z AUTO 30006KT 1 1/4SM RA SCT020 SCT041 BKN048 BKN066 22/21
                 A2977 =
2018-06-18 12:00 METAR CYWA 181200Z AUTO 30004KT 290V040 2SM -RA FEW028 FEW041 SCT048 SCT066
                 21/21 A2976 RMK SLP078 =
2018-06-18 11:03 METAR CYWA 181103Z AUTO 11002KT 2 1/4SM CLR 21/21 A2975 =
2018-06-18 11:00 METAR CYWA 181100Z AUTO 10003KT 070V130 3SM CLR 21/21 A2975 RMK SLP072 =
2018-06-18 10:45 METAR CYWA 181045Z AUTO 15002KT 4SM FEW067 FEW074 21/21 A2975 =
2018-06-18 10:16 METAR CYWA 181016Z AUTO 13002KT 1 3/4SM SCT062 21/20 A2976 RMK VSBY VRBL 0.9V3.0
                 =
2018-06-18 10:13 METAR CYWA 181013Z AUTO 00000KT 3/4SM FEW052 FEW062 20/20 A2977 =
2018-06-18 10:04 METAR CYWA 181004Z AUTO 12002KT 3/8SM FEW052 SCT062 20/20 A2976 =
2018-06-18 10:00 METAR CYWA 181000Z AUTO 00000KT 5/8SM SCT052 BKN062 BKN086 21/21 A2977 RMK
                 SLP081 =
2018-06-18 09:59 METAR CYWA 180959Z AUTO 00000KT 3/4SM FEW052 BKN062 BKN086 21/21 A2977 =
2018-06-18 09:55 METAR CYWA 180955Z AUTO 00000KT 1 1/4SM FEW052 BKN062 BKN086 21/21 A2977 =
2018-06-18 09:48 METAR CYWA 180948Z AUTO 00000KT 2 1/4SM FEW050 BKN062 BKN081 21/21 A2977 =
2018-06-18 09:21 METAR CYWA 180921Z AUTO 00000KT 4SM BKN026 21/21 A2977 =
2018-06-18 09:15 METAR CYWA 180915Z AUTO 02003KT 010V080 2 1/2SM BKN026 21/20 A2977 RMK VSBY VRBL
                 2.3V5.0 =
2018-06-18 09:02 METAR CYWA 180902Z AUTO 05005KT 2SM BKN019 20/20 A2977 RMK VSBY VRBL 1.5V4.0 =
2018-06-18 09:00 METAR CYWA 180900Z AUTO 05004KT 2 1/4SM -RA BKN019 20/20 A2977 RMK VSBY VRBL
                 1.5V5.0 PCPN 2.0MM PAST HR SLP081 =
2018-06-18 08:29 METAR CYWA 180829Z AUTO 00000KT 3SM RA OVC017 22/21 A2978 =
2018-06-18 08:17 METAR CYWA 180817Z AUTO 21003KT 180V260 1 1/4SM +RA OVC017 21/21 A2979 RMK VSBY
                 VRBL 0.8V8.0 =
2018-06-18 08:14 METAR CYWA 180814Z AUTO 25004KT 2 1/4SM RA OVC022 22/21 A2980 RMK VSBY VRBL
                 0.9V9.0 =
2018-06-18 08:08 METAR CYWA 180808Z AUTO 23002KT 9SM -RA BKN046 22/20 A2979 =
2018-06-18 08:00 METAR CYWA 180800Z AUTO 19002KT 9SM FEW051 SCT073 SCT080 22/20 A2978 RMK SLP084
                 =
2018-06-18 07:00 METAR CYWA 180700Z AUTO 00000KT 9SM SCT058 BKN075 22/20 A2980 RMK SLP090 =
2018-06-18 06:00 METAR CYWA 180600Z AUTO 00000KT 9SM BKN051 23/21 A2981 RMK SLP096 =
2018-06-18 05:00 METAR CYWA 180500Z AUTO 00000KT 9SM BKN065 24/21 A2983 RMK SLP101 =
2018-06-18 04:00 METAR CYWA 180400Z AUTO 35005KT 9SM FEW047 BKN071 25/21 A2985 RMK SLP108 =
2018-06-18 03:41 METAR CYWA 180341Z AUTO 34011KT 230V350 9SM FEW047 SCT075 SCT087 26/21 A2986 =
2018-06-18 03:00 METAR CYWA 180300Z AUTO 21005KT 9SM FEW074 25/21 A2983 RMK SLP101 =
2018-06-18 02:00 METAR CYWA 180200Z AUTO 18003KT 170V230 9SM FEW078 26/21 A2984 RMK SLP106 =
2018-06-18 01:00 METAR CYWA 180100Z AUTO 17003KT 9SM CLR 27/21 A2984 RMK SLP104 =

Support USWX by starting your Amazon purchase here.